Terminal Aerodrome Forecast
Issued by NWS Upton, NY

Home | Current Version | Previous Version | Text Only | Print | Product List | Glossary On
Versions: 1 2 3 4 5 6 7 8 9 10 11 12 13 14 15 16 17 18 19 20 21 22 23 24 25 26 27 28 29 30 31 32 33 34 35
000
FTUS41 KOKX 300538
TAFISP
TAF
KISP 300538Z 3006/0106 05015G23KT P6SM -RA OVC025
     FM301200 06022G30KT P6SM -RA OVC015
     FM301500 06022G31KT 3SM RA OVC010
     FM301800 05018G25KT 2SM -RA BR OVC007
     FM010300 04013G19KT 2SM -SHRA BR OVC006=

USA.gov is the U.S. government's official web portal to all federal, state and local government web resources and services.